sensor_id;sensor_type;location;lat;lon;timestamp;temperature;humidity
26326;DHT22;14032;52.510;7.342;2022-10-30T00:02:06;17.60;99.90
26326;DHT22;14032;52.510;7.342;2022-10-30T00:04:31;17.60;99.90
26326;DHT22;14032;52.510;7.342;2022-10-30T00:06:57;17.60;99.90
26326;DHT22;14032;52.510;7.342;2022-10-30T00:09:22;17.60;99.90
26326;DHT22;14032;52.510;7.342;2022-10-30T00:11:48;17.60;99.90
26326;DHT22;14032;52.510;7.342;2022-10-30T00:14:13;17.60;99.90
26326;DHT22;14032;52.510;7.342;2022-10-30T00:16:39;17.60;99.90
26326;DHT22;14032;52.510;7.342;2022-10-30T00:19:05;17.70;99.90
26326;DHT22;14032;52.510;7.342;2022-10-30T00:21:30;17.70;99.90
26326;DHT22;14032;52.510;7.342;2022-10-30T00:23:56;17.70;99.90
26326;DHT22;14032;52.510;7.342;2022-10-30T00:26:23;17.80;99.90
26326;DHT22;14032;52.510;7.342;2022-10-30T00:28:51;17.80;99.90
26326;DHT22;14032;52.510;7.342;2022-10-30T00:31:17;17.80;99.90
26326;DHT22;14032;52.510;7.342;2022-10-30T00:33:43;17.80;99.90
26326;DHT22;14032;52.510;7.342;2022-10-30T00:36:12;17.80;99.90
26326;DHT22;14032;52.510;7.342;2022-10-30T00:38:38;17.80;99.90
26326;DHT22;14032;52.510;7.342;2022-10-30T00:41:03;17.80;99.90
26326;DHT22;14032;52.510;7.342;2022-10-30T00:43:31;17.80;99.90
26326;DHT22;14032;52.510;7.342;2022-10-30T00:46:06;17.70;99.90
26326;DHT22;14032;52.510;7.342;2022-10-30T00:48:34;17.70;99.90
26326;DHT22;14032;52.510;7.342;2022-10-30T00:51:02;17.70;99.90
26326;DHT22;14032;52.510;7.342;2022-10-30T00:53:29;17.70;99.90
26326;DHT22;14032;52.510;7.342;2022-10-30T00:55:59;17.70;99.90
26326;DHT22;14032;52.510;7.342;2022-10-30T00:58:32;17.70;99.90
26326;DHT22;14032;52.510;7.342;2022-10-30T01:01:00;17.60;99.90
26326;DHT22;14032;52.510;7.342;2022-10-30T01:03:27;17.60;99.90
26326;DHT22;14032;52.510;7.342;2022-10-30T01:05:57;17.60;99.90
26326;DHT22;14032;52.510;7.342;2022-10-30T01:08:23;17.50;99.90
26326;DHT22;14032;52.510;7.342;2022-10-30T01:10:49;17.50;99.90
26326;DHT22;14032;52.510;7.342;2022-10-30T01:13:16;17.50;99.90
26326;DHT22;14032;52.510;7.342;2022-10-30T01:23:55;17.40;99.90
26326;DHT22;14032;52.510;7.342;2022-10-30T01:26:37;17.30;99.90
26326;DHT22;14032;52.510;7.342;2022-10-30T01:29:28;17.30;99.90
26326;DHT22;14032;52.510;7.342;2022-10-30T01:32:03;17.30;99.90
26326;DHT22;14032;52.510;7.342;2022-10-30T01:34:57;17.30;99.90
26326;DHT22;14032;52.510;7.342;2022-10-30T01:37:31;17.30;99.90
26326;DHT22;14032;52.510;7.342;2022-10-30T01:40:09;17.30;99.90
26326;DHT22;14032;52.510;7.342;2022-10-30T01:42:52;17.20;99.90
26326;DHT22;14032;52.510;7.342;2022-10-30T01:45:26;17.20;99.90
26326;DHT22;14032;52.510;7.342;2022-10-30T01:51:22;17.30;99.90
26326;DHT22;14032;52.510;7.342;2022-10-30T01:54:32;17.30;99.90
26326;DHT22;14032;52.510;7.342;2022-10-30T01:59:54;17.30;99.90
26326;DHT22;14032;52.510;7.342;2022-10-30T02:02:22;17.30;99.90
26326;DHT22;14032;52.510;7.342;2022-10-30T02:04:48;17.30;99.90
26326;DHT22;14032;52.510;7.342;2022-10-30T02:07:14;17.30;99.90
26326;DHT22;14032;52.510;7.342;2022-10-30T02:09:40;17.30;99.90
26326;DHT22;14032;52.510;7.342;2022-10-30T02:12:06;17.40;99.90
26326;DHT22;14032;52.510;7.342;2022-10-30T02:14:36;17.30;99.90
26326;DHT22;14032;52.510;7.342;2022-10-30T02:17:05;17.30;99.90
26326;DHT22;14032;52.510;7.342;2022-10-30T02:19:31;17.30;99.90
26326;DHT22;14032;52.510;7.342;2022-10-30T02:21:56;17.30;99.90
26326;DHT22;14032;52.510;7.342;2022-10-30T02:24:22;17.30;99.90
26326;DHT22;14032;52.510;7.342;2022-10-30T02:26:47;17.30;99.90
26326;DHT22;14032;52.510;7.342;2022-10-30T02:29:13;17.30;99.90
26326;DHT22;14032;52.510;7.342;2022-10-30T02:31:39;17.20;99.90
26326;DHT22;14032;52.510;7.342;2022-10-30T02:34:05;17.20;99.90
26326;DHT22;14032;52.510;7.342;2022-10-30T02:36:30;17.20;99.90
26326;DHT22;14032;52.510;7.342;2022-10-30T02:38:56;17.20;99.90
26326;DHT22;14032;52.510;7.342;2022-10-30T02:41:22;17.10;99.90
26326;DHT22;14032;52.510;7.342;2022-10-30T02:43:50;17.10;99.90
26326;DHT22;14032;52.510;7.342;2022-10-30T02:46:17;17.10;99.90
26326;DHT22;14032;52.510;7.342;2022-10-30T02:48:43;17.10;99.90
26326;DHT22;14032;52.510;7.342;2022-10-30T02:51:08;17.10;99.90
26326;DHT22;14032;52.510;7.342;2022-10-30T02:53:34;17.10;99.90
26326;DHT22;14032;52.510;7.342;2022-10-30T02:56:04;17.00;99.90
26326;DHT22;14032;52.510;7.342;2022-10-30T02:58:30;17.00;99.90
26326;DHT22;14032;52.510;7.342;2022-10-30T03:00:55;17.00;99.90
26326;DHT22;14032;52.510;7.342;2022-10-30T03:03:21;16.90;99.90
26326;DHT22;14032;52.510;7.342;2022-10-30T03:05:46;16.90;99.90
26326;DHT22;14032;52.510;7.342;2022-10-30T03:08:12;16.80;99.90
26326;DHT22;14032;52.510;7.342;2022-10-30T03:10:37;16.80;99.90
26326;DHT22;14032;52.510;7.342;2022-10-30T03:13:03;16.70;99.90
26326;DHT22;14032;52.510;7.342;2022-10-30T03:15:29;16.70;99.90
26326;DHT22;14032;52.510;7.342;2022-10-30T03:17:54;16.70;99.90
26326;DHT22;14032;52.510;7.342;2022-10-30T03:20:20;16.70;99.90
26326;DHT22;14032;52.510;7.342;2022-10-30T03:22:45;16.70;99.90
26326;DHT22;14032;52.510;7.342;2022-10-30T03:25:11;16.70;99.90
26326;DHT22;14032;52.510;7.342;2022-10-30T03:27:36;16.70;99.90
26326;DHT22;14032;52.510;7.342;2022-10-30T03:30:02;16.70;99.90
26326;DHT22;14032;52.510;7.342;2022-10-30T03:32:28;16.70;99.90
26326;DHT22;14032;52.510;7.342;2022-10-30T03:34:54;16.70;99.90
26326;DHT22;14032;52.510;7.342;2022-10-30T03:37:19;16.70;99.90
26326;DHT22;14032;52.510;7.342;2022-10-30T03:39:45;16.60;99.90
26326;DHT22;14032;52.510;7.342;2022-10-30T03:42:11;16.60;99.90
26326;DHT22;14032;52.510;7.342;2022-10-30T03:44:36;16.60;99.90
26326;DHT22;14032;52.510;7.342;2022-10-30T03:47:02;16.60;99.90
26326;DHT22;14032;52.510;7.342;2022-10-30T03:49:27;16.60;99.90
26326;DHT22;14032;52.510;7.342;2022-10-30T03:51:53;16.50;99.90
26326;DHT22;14032;52.510;7.342;2022-10-30T03:54:18;16.50;99.90
26326;DHT22;14032;52.510;7.342;2022-10-30T03:56:44;16.50;99.90
26326;DHT22;14032;52.510;7.342;2022-10-30T03:59:10;16.50;99.90
26326;DHT22;14032;52.510;7.342;2022-10-30T04:01:37;16.50;99.90
26326;DHT22;14032;52.510;7.342;2022-10-30T04:04:02;16.50;99.90
26326;DHT22;14032;52.510;7.342;2022-10-30T04:06:28;16.40;99.90
26326;DHT22;14032;52.510;7.342;2022-10-30T04:08:54;16.40;99.90
26326;DHT22;14032;52.510;7.342;2022-10-30T04:11:20;16.40;99.90
26326;DHT22;14032;52.510;7.342;2022-10-30T04:13:45;16.40;99.90
26326;DHT22;14032;52.510;7.342;2022-10-30T04:16:11;16.40;99.90
26326;DHT22;14032;52.510;7.342;2022-10-30T04:18:37;16.30;99.90
26326;DHT22;14032;52.510;7.342;2022-10-30T04:21:02;16.30;99.90
26326;DHT22;14032;52.510;7.342;2022-10-30T04:23:28;16.30;99.90
26326;DHT22;14032;52.510;7.342;2022-10-30T04:25:55;16.30;99.90
26326;DHT22;14032;52.510;7.342;2022-10-30T04:28:20;16.30;99.90
26326;DHT22;14032;52.510;7.342;2022-10-30T04:30:46;16.30;99.90
26326;DHT22;14032;52.510;7.342;2022-10-30T04:33:13;16.30;99.90
26326;DHT22;14032;52.510;7.342;2022-10-30T04:35:39;16.30;99.90
26326;DHT22;14032;52.510;7.342;2022-10-30T04:38:14;16.30;99.90
26326;DHT22;14032;52.510;7.342;2022-10-30T04:40:41;16.20;99.90
26326;DHT22;14032;52.510;7.342;2022-10-30T04:43:08;16.20;99.90
26326;DHT22;14032;52.510;7.342;2022-10-30T04:45:35;16.20;99.90
26326;DHT22;14032;52.510;7.342;2022-10-30T04:48:02;16.10;99.90
26326;DHT22;14032;52.510;7.342;2022-10-30T04:50:29;16.10;99.90
26326;DHT22;14032;52.510;7.342;2022-10-30T04:53:17;16.00;99.90
26326;DHT22;14032;52.510;7.342;2022-10-30T04:55:43;16.00;99.90
26326;DHT22;14032;52.510;7.342;2022-10-30T04:58:10;15.90;99.90
26326;DHT22;14032;52.510;7.342;2022-10-30T05:00:36;15.90;99.90
26326;DHT22;14032;52.510;7.342;2022-10-30T05:03:02;15.90;99.90
26326;DHT22;14032;52.510;7.342;2022-10-30T05:05:29;15.80;99.90
26326;DHT22;14032;52.510;7.342;2022-10-30T05:07:55;15.80;99.90
26326;DHT22;14032;52.510;7.342;2022-10-30T05:10:20;15.80;99.90
26326;DHT22;14032;52.510;7.342;2022-10-30T05:12:46;15.70;99.90
26326;DHT22;14032;52.510;7.342;2022-10-30T05:15:12;15.60;99.90
26326;DHT22;14032;52.510;7.342;2022-10-30T05:17:38;15.60;99.90
26326;DHT22;14032;52.510;7.342;2022-10-30T05:20:05;15.40;99.90
26326;DHT22;14032;52.510;7.342;2022-10-30T05:22:31;15.40;99.90
26326;DHT22;14032;52.510;7.342;2022-10-30T05:24:57;15.40;99.90
26326;DHT22;14032;52.510;7.342;2022-10-30T05:27:22;15.30;99.90
26326;DHT22;14032;52.510;7.342;2022-10-30T05:29:48;15.30;99.90
26326;DHT22;14032;52.510;7.342;2022-10-30T05:32:13;15.30;99.90
26326;DHT22;14032;52.510;7.342;2022-10-30T05:34:39;15.30;99.90
26326;DHT22;14032;52.510;7.342;2022-10-30T05:37:04;15.30;99.90
26326;DHT22;14032;52.510;7.342;2022-10-30T05:39:30;15.30;99.90
26326;DHT22;14032;52.510;7.342;2022-10-30T05:41:55;15.20;99.90
26326;DHT22;14032;52.510;7.342;2022-10-30T05:44:21;15.20;99.90
26326;DHT22;14032;52.510;7.342;2022-10-30T05:46:47;15.20;99.90
26326;DHT22;14032;52.510;7.342;2022-10-30T05:49:12;15.20;99.90
26326;DHT22;14032;52.510;7.342;2022-10-30T05:51:38;15.20;99.90
26326;DHT22;14032;52.510;7.342;2022-10-30T05:54:03;15.20;99.90
26326;DHT22;14032;52.510;7.342;2022-10-30T05:56:29;15.10;99.90
26326;DHT22;14032;52.510;7.342;2022-10-30T05:58:55;15.10;99.90
26326;DHT22;14032;52.510;7.342;2022-10-30T06:01:20;15.10;99.90
26326;DHT22;14032;52.510;7.342;2022-10-30T06:03:46;15.10;99.90
26326;DHT22;14032;52.510;7.342;2022-10-30T06:06:11;15.10;99.90
26326;DHT22;14032;52.510;7.342;2022-10-30T06:08:37;15.00;99.90
26326;DHT22;14032;52.510;7.342;2022-10-30T06:11:03;15.00;99.90
26326;DHT22;14032;52.510;7.342;2022-10-30T06:13:28;15.00;99.90
26326;DHT22;14032;52.510;7.342;2022-10-30T06:15:54;15.00;99.90
26326;DHT22;14032;52.510;7.342;2022-10-30T06:18:23;15.00;99.90
26326;DHT22;14032;52.510;7.342;2022-10-30T06:20:48;15.00;99.90
26326;DHT22;14032;52.510;7.342;2022-10-30T06:23:14;14.90;99.90
26326;DHT22;14032;52.510;7.342;2022-10-30T06:25:40;14.90;99.90
26326;DHT22;14032;52.510;7.342;2022-10-30T06:28:05;14.90;99.90
26326;DHT22;14032;52.510;7.342;2022-10-30T06:30:31;15.00;99.90
26326;DHT22;14032;52.510;7.342;2022-10-30T06:32:58;14.90;99.90
26326;DHT22;14032;52.510;7.342;2022-10-30T06:35:24;14.90;99.90
26326;DHT22;14032;52.510;7.342;2022-10-30T06:37:51;14.90;99.90
26326;DHT22;14032;52.510;7.342;2022-10-30T06:40:18;14.90;99.90
26326;DHT22;14032;52.510;7.342;2022-10-30T06:42:53;14.90;99.90
26326;DHT22;14032;52.510;7.342;2022-10-30T06:45:20;14.90;99.90
26326;DHT22;14032;52.510;7.342;2022-10-30T06:47:47;14.90;99.90
26326;DHT22;14032;52.510;7.342;2022-10-30T06:50:15;14.80;99.90
26326;DHT22;14032;52.510;7.342;2022-10-30T06:52:41;14.90;99.90
26326;DHT22;14032;52.510;7.342;2022-10-30T06:55:07;14.80;99.90
26326;DHT22;14032;52.510;7.342;2022-10-30T06:57:33;14.80;99.90
26326;DHT22;14032;52.510;7.342;2022-10-30T06:59:58;14.80;99.90
26326;DHT22;14032;52.510;7.342;2022-10-30T07:02:24;14.80;99.90
26326;DHT22;14032;52.510;7.342;2022-10-30T07:04:49;14.80;99.90
26326;DHT22;14032;52.510;7.342;2022-10-30T07:07:15;14.80;99.90
26326;DHT22;14032;52.510;7.342;2022-10-30T07:09:41;14.80;99.90
26326;DHT22;14032;52.510;7.342;2022-10-30T07:12:08;14.80;99.90
26326;DHT22;14032;52.510;7.342;2022-10-30T07:14:34;14.80;99.90
26326;DHT22;14032;52.510;7.342;2022-10-30T07:17:00;14.80;99.90
26326;DHT22;14032;52.510;7.342;2022-10-30T07:19:25;14.80;99.90
26326;DHT22;14032;52.510;7.342;2022-10-30T07:21:51;14.80;99.90
26326;DHT22;14032;52.510;7.342;2022-10-30T07:24:16;14.80;99.90
26326;DHT22;14032;52.510;7.342;2022-10-30T07:26:42;14.90;99.90
26326;DHT22;14032;52.510;7.342;2022-10-30T07:29:08;14.90;99.90
26326;DHT22;14032;52.510;7.342;2022-10-30T07:31:33;14.90;99.90
26326;DHT22;14032;52.510;7.342;2022-10-30T07:33:59;14.90;99.90
26326;DHT22;14032;52.510;7.342;2022-10-30T07:36:25;14.90;99.90
26326;DHT22;14032;52.510;7.342;2022-10-30T07:38:51;14.90;99.90
26326;DHT22;14032;52.510;7.342;2022-10-30T07:41:17;15.00;99.90
26326;DHT22;14032;52.510;7.342;2022-10-30T07:43:43;15.00;99.90
26326;DHT22;14032;52.510;7.342;2022-10-30T07:46:09;15.10;99.90
26326;DHT22;14032;52.510;7.342;2022-10-30T07:48:35;15.10;99.90
26326;DHT22;14032;52.510;7.342;2022-10-30T07:51:01;15.10;99.90
26326;DHT22;14032;52.510;7.342;2022-10-30T07:53:26;15.20;99.90
26326;DHT22;14032;52.510;7.342;2022-10-30T07:55:52;15.20;99.90
26326;DHT22;14032;52.510;7.342;2022-10-30T07:58:18;15.20;99.90
26326;DHT22;14032;52.510;7.342;2022-10-30T08:00:43;15.30;99.90
26326;DHT22;14032;52.510;7.342;2022-10-30T08:03:10;15.30;99.90
26326;DHT22;14032;52.510;7.342;2022-10-30T08:05:36;15.30;99.90
26326;DHT22;14032;52.510;7.342;2022-10-30T08:08:01;15.40;99.90
26326;DHT22;14032;52.510;7.342;2022-10-30T08:10:27;15.30;99.90
26326;DHT22;14032;52.510;7.342;2022-10-30T08:12:53;15.40;99.90
26326;DHT22;14032;52.510;7.342;2022-10-30T08:15:19;15.40;99.90
26326;DHT22;14032;52.510;7.342;2022-10-30T08:17:46;15.40;99.90
26326;DHT22;14032;52.510;7.342;2022-10-30T08:20:14;15.40;99.90
26326;DHT22;14032;52.510;7.342;2022-10-30T08:22:51;15.40;99.90
26326;DHT22;14032;52.510;7.342;2022-10-30T08:25:18;15.50;99.90
26326;DHT22;14032;52.510;7.342;2022-10-30T08:28:02;15.50;99.90
26326;DHT22;14032;52.510;7.342;2022-10-30T08:30:31;15.50;99.90
26326;DHT22;14032;52.510;7.342;2022-10-30T08:32:59;15.60;99.90
26326;DHT22;14032;52.510;7.342;2022-10-30T08:35:26;15.60;99.90
26326;DHT22;14032;52.510;7.342;2022-10-30T08:37:56;15.70;99.90
26326;DHT22;14032;52.510;7.342;2022-10-30T08:40:22;15.70;99.90
26326;DHT22;14032;52.510;7.342;2022-10-30T08:42:55;15.80;99.90
26326;DHT22;14032;52.510;7.342;2022-10-30T08:45:22;15.90;99.90
26326;DHT22;14032;52.510;7.342;2022-10-30T08:47:56;15.90;99.90
26326;DHT22;14032;52.510;7.342;2022-10-30T08:50:21;16.00;99.90
26326;DHT22;14032;52.510;7.342;2022-10-30T08:52:47;16.10;99.90
26326;DHT22;14032;52.510;7.342;2022-10-30T08:55:12;16.10;99.90
26326;DHT22;14032;52.510;7.342;2022-10-30T08:57:38;16.20;99.90
26326;DHT22;14032;52.510;7.342;2022-10-30T09:00:05;16.20;99.90
26326;DHT22;14032;52.510;7.342;2022-10-30T09:02:31;16.30;99.90
26326;DHT22;14032;52.510;7.342;2022-10-30T09:04:56;16.40;99.90
26326;DHT22;14032;52.510;7.342;2022-10-30T09:07:22;16.50;99.90
26326;DHT22;14032;52.510;7.342;2022-10-30T09:09:47;16.50;99.90
26326;DHT22;14032;52.510;7.342;2022-10-30T09:12:13;16.50;99.90
26326;DHT22;14032;52.510;7.342;2022-10-30T09:14:38;16.60;99.90
26326;DHT22;14032;52.510;7.342;2022-10-30T09:17:04;16.60;99.90
26326;DHT22;14032;52.510;7.342;2022-10-30T09:19:30;16.70;99.90
26326;DHT22;14032;52.510;7.342;2022-10-30T09:21:55;16.70;99.90
26326;DHT22;14032;52.510;7.342;2022-10-30T09:24:21;16.80;99.90
26326;DHT22;14032;52.510;7.342;2022-10-30T09:26:46;16.80;99.90
26326;DHT22;14032;52.510;7.342;2022-10-30T09:29:12;16.90;99.90
26326;DHT22;14032;52.510;7.342;2022-10-30T09:31:37;16.90;99.90
26326;DHT22;14032;52.510;7.342;2022-10-30T09:34:03;16.90;99.90
26326;DHT22;14032;52.510;7.342;2022-10-30T09:36:29;17.00;99.90
26326;DHT22;14032;52.510;7.342;2022-10-30T09:38:56;17.10;99.90
26326;DHT22;14032;52.510;7.342;2022-10-30T09:50:22;17.10;99.90
26326;DHT22;14032;52.510;7.342;2022-10-30T09:53:34;17.20;99.90
26326;DHT22;14032;52.510;7.342;2022-10-30T10:01:52;17.30;99.90
26326;DHT22;14032;52.510;7.342;2022-10-30T10:04:38;17.30;99.90
26326;DHT22;14032;52.510;7.342;2022-10-30T10:07:15;17.40;99.90
26326;DHT22;14032;52.510;7.342;2022-10-30T10:09:42;17.40;99.90
26326;DHT22;14032;52.510;7.342;2022-10-30T10:12:20;17.40;99.90
26326;DHT22;14032;52.510;7.342;2022-10-30T10:14:50;17.50;99.90
26326;DHT22;14032;52.510;7.342;2022-10-30T10:17:24;17.50;99.90
26326;DHT22;14032;52.510;7.342;2022-10-30T10:19:57;17.50;99.90
26326;DHT22;14032;52.510;7.342;2022-10-30T10:22:37;17.60;99.90
26326;DHT22;14032;52.510;7.342;2022-10-30T10:25:08;17.70;99.90
26326;DHT22;14032;52.510;7.342;2022-10-30T10:27:51;17.80;99.90
26326;DHT22;14032;52.510;7.342;2022-10-30T10:30:22;17.80;99.90
26326;DHT22;14032;52.510;7.342;2022-10-30T10:44:31;18.10;99.90
26326;DHT22;14032;52.510;7.342;2022-10-30T10:53:16;18.20;99.90
26326;DHT22;14032;52.510;7.342;2022-10-30T10:55:45;18.20;99.90
26326;DHT22;14032;52.510;7.342;2022-10-30T10:58:28;18.20;99.90
26326;DHT22;14032;52.510;7.342;2022-10-30T11:00:56;18.30;99.90
26326;DHT22;14032;52.510;7.342;2022-10-30T11:06:19;18.30;99.90
26326;DHT22;14032;52.510;7.342;2022-10-30T11:08:46;18.30;99.90
26326;DHT22;14032;52.510;7.342;2022-10-30T11:11:12;18.30;99.90
26326;DHT22;14032;52.510;7.342;2022-10-30T11:13:40;18.30;99.90
26326;DHT22;14032;52.510;7.342;2022-10-30T11:16:29;18.30;99.90
26326;DHT22;14032;52.510;7.342;2022-10-30T11:19:01;18.30;99.90
26326;DHT22;14032;52.510;7.342;2022-10-30T11:21:30;18.30;99.90
26326;DHT22;14032;52.510;7.342;2022-10-30T11:23:57;18.40;99.90
26326;DHT22;14032;52.510;7.342;2022-10-30T11:28:55;18.40;99.90
26326;DHT22;14032;52.510;7.342;2022-10-30T11:31:32;18.40;99.90
26326;DHT22;14032;52.510;7.342;2022-10-30T11:36:50;18.50;99.90
26326;DHT22;14032;52.510;7.342;2022-10-30T11:39:27;18.50;99.90
26326;DHT22;14032;52.510;7.342;2022-10-30T11:42:09;18.50;99.90
26326;DHT22;14032;52.510;7.342;2022-10-30T11:44:47;18.50;99.90
26326;DHT22;14032;52.510;7.342;2022-10-30T11:47:14;18.50;99.90
26326;DHT22;14032;52.510;7.342;2022-10-30T11:49:47;18.50;99.90
26326;DHT22;14032;52.510;7.342;2022-10-30T11:52:17;18.50;99.90
26326;DHT22;14032;52.510;7.342;2022-10-30T11:54:45;18.50;99.90
26326;DHT22;14032;52.510;7.342;2022-10-30T11:59:48;18.60;99.90
26326;DHT22;14032;52.510;7.342;2022-10-30T12:02:24;18.60;99.90
26326;DHT22;14032;52.510;7.342;2022-10-30T12:04:55;18.60;99.90
26326;DHT22;14032;52.510;7.342;2022-10-30T12:07:32;18.60;99.90
26326;DHT22;14032;52.510;7.342;2022-10-30T12:09:58;18.60;99.90
26326;DHT22;14032;52.510;7.342;2022-10-30T12:14:52;18.60;99.90
26326;DHT22;14032;52.510;7.342;2022-10-30T12:17:19;18.60;99.90
26326;DHT22;14032;52.510;7.342;2022-10-30T12:19:53;18.70;99.90
26326;DHT22;14032;52.510;7.342;2022-10-30T12:22:31;18.60;99.90
26326;DHT22;14032;52.510;7.342;2022-10-30T12:25:35;18.70;99.90
26326;DHT22;14032;52.510;7.342;2022-10-30T12:28:05;18.60;99.90
26326;DHT22;14032;52.510;7.342;2022-10-30T12:30:35;18.70;99.90
26326;DHT22;14032;52.510;7.342;2022-10-30T12:33:14;18.70;99.90
26326;DHT22;14032;52.510;7.342;2022-10-30T12:35:58;18.70;99.90
26326;DHT22;14032;52.510;7.342;2022-10-30T12:38:32;18.70;99.90
26326;DHT22;14032;52.510;7.342;2022-10-30T12:41:10;18.70;99.90
26326;DHT22;14032;52.510;7.342;2022-10-30T12:43:38;18.80;99.90
26326;DHT22;14032;52.510;7.342;2022-10-30T12:46:35;18.70;99.90
26326;DHT22;14032;52.510;7.342;2022-10-30T12:49:16;18.80;99.90
26326;DHT22;14032;52.510;7.342;2022-10-30T12:51:58;18.70;99.90
26326;DHT22;14032;52.510;7.342;2022-10-30T12:54:47;18.80;99.90
26326;DHT22;14032;52.510;7.342;2022-10-30T12:57:24;18.80;99.90
26326;DHT22;14032;52.510;7.342;2022-10-30T13:00:14;18.80;99.90
26326;DHT22;14032;52.510;7.342;2022-10-30T13:02:59;18.80;99.90
26326;DHT22;14032;52.510;7.342;2022-10-30T13:05:53;18.80;99.90
26326;DHT22;14032;52.510;7.342;2022-10-30T13:08:37;18.80;99.90
26326;DHT22;14032;52.510;7.342;2022-10-30T13:11:35;18.80;99.90
26326;DHT22;14032;52.510;7.342;2022-10-30T13:14:03;18.80;99.90
26326;DHT22;14032;52.510;7.342;2022-10-30T13:16:30;18.80;99.90
26326;DHT22;14032;52.510;7.342;2022-10-30T13:18:59;18.80;99.90
26326;DHT22;14032;52.510;7.342;2022-10-30T13:24:28;18.90;99.90
26326;DHT22;14032;52.510;7.342;2022-10-30T13:27:04;18.90;99.90
26326;DHT22;14032;52.510;7.342;2022-10-30T13:32:25;19.00;99.90
26326;DHT22;14032;52.510;7.342;2022-10-30T13:35:12;19.00;99.90
26326;DHT22;14032;52.510;7.342;2022-10-30T13:43:36;19.00;99.90
26326;DHT22;14032;52.510;7.342;2022-10-30T13:46:14;19.00;99.90
26326;DHT22;14032;52.510;7.342;2022-10-30T13:51:42;19.00;99.90
26326;DHT22;14032;52.510;7.342;2022-10-30T13:56:44;18.90;99.90
26326;DHT22;14032;52.510;7.342;2022-10-30T13:59:14;18.90;99.90
26326;DHT22;14032;52.510;7.342;2022-10-30T14:02:11;18.80;99.90
26326;DHT22;14032;52.510;7.342;2022-10-30T14:05:27;18.80;99.90
26326;DHT22;14032;52.510;7.342;2022-10-30T14:08:14;18.80;99.90
26326;DHT22;14032;52.510;7.342;2022-10-30T14:10:43;18.80;99.90
26326;DHT22;14032;52.510;7.342;2022-10-30T14:15:44;18.80;99.90
26326;DHT22;14032;52.510;7.342;2022-10-30T14:20:44;18.70;99.90
26326;DHT22;14032;52.510;7.342;2022-10-30T14:28:54;18.70;99.90
26326;DHT22;14032;52.510;7.342;2022-10-30T14:31:33;18.70;99.90
26326;DHT22;14032;52.510;7.342;2022-10-30T14:33:58;18.70;99.90
26326;DHT22;14032;52.510;7.342;2022-10-30T14:50:30;18.50;99.90
26326;DHT22;14032;52.510;7.342;2022-10-30T14:54:00;18.40;99.90
26326;DHT22;14032;52.510;7.342;2022-10-30T14:56:34;18.50;99.90
26326;DHT22;14032;52.510;7.342;2022-10-30T15:04:58;18.40;99.90
26326;DHT22;14032;52.510;7.342;2022-10-30T15:07:48;18.40;99.90
26326;DHT22;14032;52.510;7.342;2022-10-30T15:15:38;18.30;99.90
26326;DHT22;14032;52.510;7.342;2022-10-30T15:18:10;18.30;99.90
26326;DHT22;14032;52.510;7.342;2022-10-30T15:20:39;18.30;99.90
26326;DHT22;14032;52.510;7.342;2022-10-30T15:23:14;18.30;99.90
26326;DHT22;14032;52.510;7.342;2022-10-30T15:25:51;18.30;99.90
26326;DHT22;14032;52.510;7.342;2022-10-30T15:28:19;18.30;99.90
26326;DHT22;14032;52.510;7.342;2022-10-30T15:31:06;18.30;99.90
26326;DHT22;14032;52.510;7.342;2022-10-30T15:33:36;18.20;99.90
26326;DHT22;14032;52.510;7.342;2022-10-30T15:36:03;18.20;99.90
26326;DHT22;14032;52.510;7.342;2022-10-30T15:38:29;18.10;99.90
26326;DHT22;14032;52.510;7.342;2022-10-30T15:41:00;18.10;99.90
26326;DHT22;14032;52.510;7.342;2022-10-30T15:43:32;18.10;99.90
26326;DHT22;14032;52.510;7.342;2022-10-30T15:45:59;18.00;99.90
26326;DHT22;14032;52.510;7.342;2022-10-30T15:48:27;18.00;99.90
26326;DHT22;14032;52.510;7.342;2022-10-30T15:51:16;17.90;99.90
26326;DHT22;14032;52.510;7.342;2022-10-30T15:53:55;17.80;99.90
26326;DHT22;14032;52.510;7.342;2022-10-30T15:56:42;17.80;99.90
26326;DHT22;14032;52.510;7.342;2022-10-30T15:59:28;17.70;99.90
26326;DHT22;14032;52.510;7.342;2022-10-30T16:01:55;17.60;99.90
26326;DHT22;14032;52.510;7.342;2022-10-30T16:04:29;17.60;99.90
26326;DHT22;14032;52.510;7.342;2022-10-30T16:06:57;17.50;99.90
26326;DHT22;14032;52.510;7.342;2022-10-30T16:09:24;17.40;99.90
26326;DHT22;14032;52.510;7.342;2022-10-30T16:11:51;17.40;99.90
26326;DHT22;14032;52.510;7.342;2022-10-30T16:14:22;17.30;99.90
26326;DHT22;14032;52.510;7.342;2022-10-30T16:16:49;17.30;99.90
26326;DHT22;14032;52.510;7.342;2022-10-30T16:21:47;17.20;99.90
26326;DHT22;14032;52.510;7.342;2022-10-30T16:24:14;17.20;99.90
26326;DHT22;14032;52.510;7.342;2022-10-30T16:26:40;17.10;99.90
26326;DHT22;14032;52.510;7.342;2022-10-30T16:31:38;17.00;99.90
26326;DHT22;14032;52.510;7.342;2022-10-30T16:34:12;16.90;99.90
26326;DHT22;14032;52.510;7.342;2022-10-30T16:36:42;16.90;99.90
26326;DHT22;14032;52.510;7.342;2022-10-30T16:39:13;16.80;99.90
26326;DHT22;14032;52.510;7.342;2022-10-30T16:41:39;16.80;99.90
26326;DHT22;14032;52.510;7.342;2022-10-30T16:46:50;16.70;99.90
26326;DHT22;14032;52.510;7.342;2022-10-30T16:49:21;16.60;99.90
26326;DHT22;14032;52.510;7.342;2022-10-30T16:51:54;16.60;99.90
26326;DHT22;14032;52.510;7.342;2022-10-30T16:54:27;16.60;99.90
26326;DHT22;14032;52.510;7.342;2022-10-30T16:56:55;16.50;99.90
26326;DHT22;14032;52.510;7.342;2022-10-30T16:59:33;16.40;99.90
26326;DHT22;14032;52.510;7.342;2022-10-30T17:02:02;16.40;99.90
26326;DHT22;14032;52.510;7.342;2022-10-30T17:04:31;16.40;99.90
26326;DHT22;14032;52.510;7.342;2022-10-30T17:07:23;16.40;99.90
26326;DHT22;14032;52.510;7.342;2022-10-30T17:09:51;16.30;99.90
26326;DHT22;14032;52.510;7.342;2022-10-30T17:12:25;16.30;99.90
26326;DHT22;14032;52.510;7.342;2022-10-30T17:15:11;16.30;99.90
26326;DHT22;14032;52.510;7.342;2022-10-30T17:17:39;16.30;99.90
26326;DHT22;14032;52.510;7.342;2022-10-30T17:20:13;16.30;99.90
26326;DHT22;14032;52.510;7.342;2022-10-30T17:22:51;16.30;99.90
26326;DHT22;14032;52.510;7.342;2022-10-30T17:25:35;16.30;99.90
26326;DHT22;14032;52.510;7.342;2022-10-30T17:28:00;16.30;99.90
26326;DHT22;14032;52.510;7.342;2022-10-30T17:30:39;16.30;99.90
26326;DHT22;14032;52.510;7.342;2022-10-30T17:35:55;16.30;99.90
26326;DHT22;14032;52.510;7.342;2022-10-30T17:38:21;16.30;99.90
26326;DHT22;14032;52.510;7.342;2022-10-30T17:40:46;16.30;99.90
26326;DHT22;14032;52.510;7.342;2022-10-30T17:43:12;16.30;99.90
26326;DHT22;14032;52.510;7.342;2022-10-30T17:45:42;16.20;99.90
26326;DHT22;14032;52.510;7.342;2022-10-30T17:48:16;16.20;99.90
26326;DHT22;14032;52.510;7.342;2022-10-30T17:50:42;16.20;99.90
26326;DHT22;14032;52.510;7.342;2022-10-30T17:53:19;16.10;99.90